sensor_id;sensor_type;location;lat;lon;timestamp;pressure;altitude;pressure_sealevel;temperature;humidity
64632;BME280;58358;50.936;0.246;2023-04-30T00:00:42;101684.56;;;9.73;63.54
64632;BME280;58358;50.936;0.246;2023-04-30T00:03:08;101688.14;;;8.48;65.69
64632;BME280;58358;50.936;0.246;2023-04-30T00:05:33;101681.75;;;9.36;65.94
64632;BME280;58358;50.936;0.246;2023-04-30T00:07:59;101679.24;;;9.39;65.44
64632;BME280;58358;50.936;0.246;2023-04-30T00:10:24;101679.70;;;8.26;67.62
64632;BME280;58358;50.936;0.246;2023-04-30T00:12:50;101680.01;;;7.63;71.95
64632;BME280;58358;50.936;0.246;2023-04-30T00:15:15;101672.54;;;9.08;66.63
64632;BME280;58358;50.936;0.246;2023-04-30T00:17:40;101672.34;;;9.31;66.58
64632;BME280;58358;50.936;0.246;2023-04-30T00:20:07;101674.20;;;9.17;64.76
64632;BME280;58358;50.936;0.246;2023-04-30T00:22:31;101674.81;;;8.97;66.55
64632;BME280;58358;50.936;0.246;2023-04-30T00:24:57;101678.23;;;9.64;63.05
64632;BME280;58358;50.936;0.246;2023-04-30T00:27:22;101681.90;;;8.93;65.36
64632;BME280;58358;50.936;0.246;2023-04-30T00:29:47;101678.65;;;9.65;63.21
64632;BME280;58358;50.936;0.246;2023-04-30T00:32:13;101680.19;;;9.23;63.16
64632;BME280;58358;50.936;0.246;2023-04-30T00:34:39;101681.30;;;9.54;61.66
64632;BME280;58358;50.936;0.246;2023-04-30T00:37:04;101678.12;;;9.41;61.32
64632;BME280;58358;50.936;0.246;2023-04-30T00:39:30;101682.56;;;8.90;62.79
64632;BME280;58358;50.936;0.246;2023-04-30T00:41:55;101680.33;;;8.64;63.28
64632;BME280;58358;50.936;0.246;2023-04-30T00:44:21;101682.65;;;8.56;64.06
64632;BME280;58358;50.936;0.246;2023-04-30T00:46:46;101682.47;;;8.66;65.60
64632;BME280;58358;50.936;0.246;2023-04-30T00:49:11;101679.30;;;8.52;64.96
64632;BME280;58358;50.936;0.246;2023-04-30T00:51:40;101679.03;;;5.43;75.09
64632;BME280;58358;50.936;0.246;2023-04-30T00:54:02;101675.22;;;7.15;72.66
64632;BME280;58358;50.936;0.246;2023-04-30T00:56:28;101674.66;;;7.58;68.32
64632;BME280;58358;50.936;0.246;2023-04-30T00:58:53;101672.86;;;8.71;64.56
64632;BME280;58358;50.936;0.246;2023-04-30T01:01:18;101673.79;;;7.50;68.83
64632;BME280;58358;50.936;0.246;2023-04-30T01:03:44;101672.44;;;7.42;67.54
64632;BME280;58358;50.936;0.246;2023-04-30T01:06:09;101669.40;;;6.17;67.73
64632;BME280;58358;50.936;0.246;2023-04-30T01:08:34;101671.06;;;7.27;68.38
64632;BME280;58358;50.936;0.246;2023-04-30T01:11:11;101672.59;;;8.22;65.56
64632;BME280;58358;50.936;0.246;2023-04-30T01:13:31;101675.56;;;8.19;64.29
64632;BME280;58358;50.936;0.246;2023-04-30T01:15:58;101672.18;;;8.71;62.97
64632;BME280;58358;50.936;0.246;2023-04-30T01:18:19;101671.59;;;7.47;65.82
64632;BME280;58358;50.936;0.246;2023-04-30T01:20:46;101672.78;;;5.82;71.35
64632;BME280;58358;50.936;0.246;2023-04-30T01:23:17;101675.81;;;7.09;68.57
64632;BME280;58358;50.936;0.246;2023-04-30T01:25:43;101676.16;;;7.48;66.29
64632;BME280;58358;50.936;0.246;2023-04-30T01:28:05;101676.89;;;6.45;70.04
64632;BME280;58358;50.936;0.246;2023-04-30T01:30:26;101673.92;;;6.75;68.69
64632;BME280;58358;50.936;0.246;2023-04-30T01:32:50;101671.02;;;6.33;71.45
64632;BME280;58358;50.936;0.246;2023-04-30T01:35:16;101667.74;;;6.75;69.80
64632;BME280;58358;50.936;0.246;2023-04-30T01:37:49;101665.06;;;6.88;68.62
64632;BME280;58358;50.936;0.246;2023-04-30T01:40:17;101662.17;;;6.83;67.59
64632;BME280;58358;50.936;0.246;2023-04-30T01:42:39;101660.80;;;6.67;68.69
64632;BME280;58358;50.936;0.246;2023-04-30T01:45:11;101664.89;;;6.05;69.92
64632;BME280;58358;50.936;0.246;2023-04-30T01:47:31;101664.63;;;5.63;69.95
64632;BME280;58358;50.936;0.246;2023-04-30T01:49:57;101660.46;;;6.11;69.43
64632;BME280;58358;50.936;0.246;2023-04-30T01:52:20;101664.01;;;7.31;65.42
64632;BME280;58358;50.936;0.246;2023-04-30T01:54:46;101660.28;;;5.41;71.23
64632;BME280;58358;50.936;0.246;2023-04-30T01:57:07;101656.48;;;6.73;68.94
64632;BME280;58358;50.936;0.246;2023-04-30T01:59:33;101659.67;;;5.00;75.32
64632;BME280;58358;50.936;0.246;2023-04-30T02:01:57;101656.36;;;5.22;74.58
64632;BME280;58358;50.936;0.246;2023-04-30T02:04:22;101654.46;;;5.07;74.83
64632;BME280;58358;50.936;0.246;2023-04-30T02:06:47;101653.85;;;5.22;74.24
64632;BME280;58358;50.936;0.246;2023-04-30T02:09:13;101649.15;;;6.29;70.69
64632;BME280;58358;50.936;0.246;2023-04-30T02:11:38;101647.53;;;7.45;65.55
64632;BME280;58358;50.936;0.246;2023-04-30T02:14:03;101647.68;;;7.27;65.25
64632;BME280;58358;50.936;0.246;2023-04-30T02:16:29;101643.68;;;5.79;71.49
64632;BME280;58358;50.936;0.246;2023-04-30T02:18:54;101648.90;;;6.56;69.55
64632;BME280;58358;50.936;0.246;2023-04-30T02:21:19;101648.54;;;7.11;67.03
64632;BME280;58358;50.936;0.246;2023-04-30T02:23:45;101648.28;;;7.48;64.41
64632;BME280;58358;50.936;0.246;2023-04-30T02:26:10;101648.61;;;7.26;65.61
64632;BME280;58358;50.936;0.246;2023-04-30T02:28:35;101649.71;;;6.96;66.89
64632;BME280;58358;50.936;0.246;2023-04-30T02:31:00;101647.33;;;7.33;64.90
64632;BME280;58358;50.936;0.246;2023-04-30T02:33:25;101644.67;;;7.26;65.65
64632;BME280;58358;50.936;0.246;2023-04-30T02:35:51;101643.25;;;6.78;66.03
64632;BME280;58358;50.936;0.246;2023-04-30T02:38:17;101646.74;;;6.21;66.60
64632;BME280;58358;50.936;0.246;2023-04-30T02:40:42;101649.01;;;5.68;69.56
64632;BME280;58358;50.936;0.246;2023-04-30T02:43:08;101647.28;;;7.04;65.62
64632;BME280;58358;50.936;0.246;2023-04-30T02:45:32;101645.52;;;7.40;64.60
64632;BME280;58358;50.936;0.246;2023-04-30T02:47:58;101642.65;;;4.53;73.48
64632;BME280;58358;50.936;0.246;2023-04-30T02:50:23;101643.37;;;6.05;69.32
64632;BME280;58358;50.936;0.246;2023-04-30T02:52:48;101644.37;;;7.02;65.51
64632;BME280;58358;50.936;0.246;2023-04-30T02:55:14;101640.06;;;6.61;65.82
64632;BME280;58358;50.936;0.246;2023-04-30T02:57:39;101646.54;;;4.70;72.03
64632;BME280;58358;50.936;0.246;2023-04-30T03:00:06;101644.54;;;5.78;70.55
64632;BME280;58358;50.936;0.246;2023-04-30T03:02:30;101641.35;;;4.22;74.32
64632;BME280;58358;50.936;0.246;2023-04-30T03:04:56;101643.44;;;4.54;72.87
64632;BME280;58358;50.936;0.246;2023-04-30T03:07:22;101642.81;;;6.22;68.94
64632;BME280;58358;50.936;0.246;2023-04-30T03:09:47;101643.64;;;5.11;72.60
64632;BME280;58358;50.936;0.246;2023-04-30T03:12:12;101645.27;;;5.13;70.20
64632;BME280;58358;50.936;0.246;2023-04-30T03:14:38;101643.31;;;5.72;70.88
64632;BME280;58358;50.936;0.246;2023-04-30T03:17:03;101644.98;;;4.07;76.11
64632;BME280;58358;50.936;0.246;2023-04-30T03:19:29;101646.03;;;3.95;77.77
64632;BME280;58358;50.936;0.246;2023-04-30T03:21:54;101640.75;;;4.59;76.70
64632;BME280;58358;50.936;0.246;2023-04-30T03:24:19;101634.25;;;5.73;71.02
64632;BME280;58358;50.936;0.246;2023-04-30T03:26:46;101632.07;;;5.64;69.81
64632;BME280;58358;50.936;0.246;2023-04-30T03:29:11;101633.11;;;4.94;73.00
64632;BME280;58358;50.936;0.246;2023-04-30T03:31:36;101632.44;;;6.81;66.91
64632;BME280;58358;50.936;0.246;2023-04-30T03:34:02;101634.86;;;5.24;71.87
64632;BME280;58358;50.936;0.246;2023-04-30T03:36:27;101640.60;;;3.81;76.29
64632;BME280;58358;50.936;0.246;2023-04-30T03:38:53;101636.33;;;4.68;76.24
64632;BME280;58358;50.936;0.246;2023-04-30T03:41:19;101635.03;;;5.92;71.22
64632;BME280;58358;50.936;0.246;2023-04-30T03:43:45;101632.32;;;6.27;68.05
64632;BME280;58358;50.936;0.246;2023-04-30T03:46:10;101629.26;;;6.65;65.19
64632;BME280;58358;50.936;0.246;2023-04-30T03:48:36;101632.84;;;5.79;67.64
64632;BME280;58358;50.936;0.246;2023-04-30T03:51:01;101631.91;;;6.00;67.89
64632;BME280;58358;50.936;0.246;2023-04-30T03:53:27;101632.16;;;6.39;67.44
64632;BME280;58358;50.936;0.246;2023-04-30T03:55:53;101632.34;;;6.40;66.19
64632;BME280;58358;50.936;0.246;2023-04-30T03:58:17;101629.32;;;6.72;64.27
64632;BME280;58358;50.936;0.246;2023-04-30T04:00:42;101625.62;;;7.05;64.73
64632;BME280;58358;50.936;0.246;2023-04-30T04:03:08;101624.28;;;4.54;71.04
64632;BME280;58358;50.936;0.246;2023-04-30T04:05:33;101623.71;;;4.89;73.00
64632;BME280;58358;50.936;0.246;2023-04-30T04:07:58;101624.41;;;5.80;68.63
64632;BME280;58358;50.936;0.246;2023-04-30T04:10:24;101626.54;;;6.31;66.86
64632;BME280;58358;50.936;0.246;2023-04-30T04:12:49;101624.56;;;6.98;64.65
64632;BME280;58358;50.936;0.246;2023-04-30T04:15:15;101622.39;;;6.06;66.13
64632;BME280;58358;50.936;0.246;2023-04-30T04:17:40;101624.77;;;5.30;68.97
64632;BME280;58358;50.936;0.246;2023-04-30T04:20:07;101625.51;;;5.69;66.75
64632;BME280;58358;50.936;0.246;2023-04-30T04:22:31;101630.22;;;3.34;74.88
64632;BME280;58358;50.936;0.246;2023-04-30T04:24:56;101628.08;;;3.59;75.58
64632;BME280;58358;50.936;0.246;2023-04-30T04:27:22;101623.75;;;6.08;67.76
64632;BME280;58358;50.936;0.246;2023-04-30T04:29:47;101624.82;;;6.36;65.81
64632;BME280;58358;50.936;0.246;2023-04-30T04:32:12;101632.51;;;3.02;77.22
64632;BME280;58358;50.936;0.246;2023-04-30T04:34:38;101633.86;;;3.85;75.10
64632;BME280;58358;50.936;0.246;2023-04-30T04:37:04;101638.93;;;3.65;77.10
64632;BME280;58358;50.936;0.246;2023-04-30T04:39:29;101637.96;;;4.07;76.87
64632;BME280;58358;50.936;0.246;2023-04-30T04:41:55;101633.41;;;4.76;73.93
64632;BME280;58358;50.936;0.246;2023-04-30T04:44:21;101640.19;;;3.35;79.51
64632;BME280;58358;50.936;0.246;2023-04-30T04:46:46;101637.43;;;3.02;81.07
64632;BME280;58358;50.936;0.246;2023-04-30T04:49:12;101636.66;;;4.02;79.03
64632;BME280;58358;50.936;0.246;2023-04-30T04:51:37;101629.46;;;4.78;75.12
64632;BME280;58358;50.936;0.246;2023-04-30T04:54:03;101630.76;;;5.98;70.15
64632;BME280;58358;50.936;0.246;2023-04-30T04:56:28;101632.49;;;6.64;66.75
64632;BME280;58358;50.936;0.246;2023-04-30T04:58:53;101633.52;;;6.08;67.48
64632;BME280;58358;50.936;0.246;2023-04-30T05:01:19;101635.54;;;6.54;66.49
64632;BME280;58358;50.936;0.246;2023-04-30T05:03:45;101631.56;;;6.19;67.48
64632;BME280;58358;50.936;0.246;2023-04-30T05:06:10;101634.01;;;4.98;70.26
64632;BME280;58358;50.936;0.246;2023-04-30T05:08:36;101636.91;;;3.61;76.56
64632;BME280;58358;50.936;0.246;2023-04-30T05:11:01;101632.30;;;5.79;69.55
64632;BME280;58358;50.936;0.246;2023-04-30T05:13:27;101627.98;;;6.08;69.67
64632;BME280;58358;50.936;0.246;2023-04-30T05:15:53;101632.98;;;6.58;68.06
64632;BME280;58358;50.936;0.246;2023-04-30T05:18:18;101640.50;;;5.77;71.35
64632;BME280;58358;50.936;0.246;2023-04-30T05:20:44;101639.57;;;6.17;68.44
64632;BME280;58358;50.936;0.246;2023-04-30T05:23:09;101640.74;;;7.03;67.59
64632;BME280;58358;50.936;0.246;2023-04-30T05:25:35;101638.38;;;7.75;65.12
64632;BME280;58358;50.936;0.246;2023-04-30T05:28:00;101633.01;;;6.73;66.51
64632;BME280;58358;50.936;0.246;2023-04-30T05:30:26;101634.66;;;7.13;66.41
64632;BME280;58358;50.936;0.246;2023-04-30T05:32:51;101637.20;;;7.14;65.96
64632;BME280;58358;50.936;0.246;2023-04-30T05:35:18;101636.64;;;7.51;65.25
64632;BME280;58358;50.936;0.246;2023-04-30T05:37:42;101635.13;;;7.07;67.23
64632;BME280;58358;50.936;0.246;2023-04-30T05:40:09;101637.68;;;5.80;72.30
64632;BME280;58358;50.936;0.246;2023-04-30T05:42:33;101637.90;;;6.15;72.50
64632;BME280;58358;50.936;0.246;2023-04-30T05:44:58;101635.20;;;7.49;67.86
64632;BME280;58358;50.936;0.246;2023-04-30T05:47:24;101633.33;;;7.07;70.05
64632;BME280;58358;50.936;0.246;2023-04-30T05:49:49;101635.51;;;7.07;69.48
64632;BME280;58358;50.936;0.246;2023-04-30T05:52:15;101637.84;;;7.97;68.19
64632;BME280;58358;50.936;0.246;2023-04-30T05:54:40;101639.86;;;7.89;69.34
64632;BME280;58358;50.936;0.246;2023-04-30T05:57:05;101636.94;;;8.40;66.84
64632;BME280;58358;50.936;0.246;2023-04-30T05:59:31;101638.65;;;8.37;67.36
64632;BME280;58358;50.936;0.246;2023-04-30T06:01:57;101634.82;;;8.49;66.94
64632;BME280;58358;50.936;0.246;2023-04-30T06:04:22;101633.30;;;8.00;68.01
64632;BME280;58358;50.936;0.246;2023-04-30T06:06:48;101633.42;;;8.55;67.69
64632;BME280;58358;50.936;0.246;2023-04-30T06:09:14;101632.09;;;9.12;66.23
64632;BME280;58358;50.936;0.246;2023-04-30T06:11:39;101632.90;;;9.81;64.88
64632;BME280;58358;50.936;0.246;2023-04-30T06:14:05;101635.55;;;9.96;65.05
64632;BME280;58358;50.936;0.246;2023-04-30T06:16:30;101634.57;;;9.03;66.85
64632;BME280;58358;50.936;0.246;2023-04-30T06:18:55;101636.07;;;10.05;64.89
64632;BME280;58358;50.936;0.246;2023-04-30T06:21:20;101638.41;;;10.12;65.49
64632;BME280;58358;50.936;0.246;2023-04-30T06:23:45;101640.53;;;10.85;64.08
64632;BME280;58358;50.936;0.246;2023-04-30T06:26:11;101639.64;;;10.24;64.54
64632;BME280;58358;50.936;0.246;2023-04-30T06:28:36;101641.57;;;11.34;63.26
64632;BME280;58358;50.936;0.246;2023-04-30T06:31:01;101643.32;;;11.63;61.76
64632;BME280;58358;50.936;0.246;2023-04-30T06:33:27;101641.33;;;11.30;64.26
64632;BME280;58358;50.936;0.246;2023-04-30T06:35:52;101640.75;;;11.22;63.44
64632;BME280;58358;50.936;0.246;2023-04-30T06:38:17;101641.07;;;10.95;65.11
64632;BME280;58358;50.936;0.246;2023-04-30T06:40:43;101640.71;;;11.43;64.71
64632;BME280;58358;50.936;0.246;2023-04-30T06:43:09;101641.85;;;10.80;65.65
64632;BME280;58358;50.936;0.246;2023-04-30T06:45:34;101642.27;;;10.56;69.25
64632;BME280;58358;50.936;0.246;2023-04-30T06:47:59;101643.84;;;10.75;68.65
64632;BME280;58358;50.936;0.246;2023-04-30T06:50:24;101642.08;;;10.20;69.55
64632;BME280;58358;50.936;0.246;2023-04-30T06:52:50;101643.46;;;10.55;68.98
64632;BME280;58358;50.936;0.246;2023-04-30T06:55:16;101646.48;;;11.02;67.30
64632;BME280;58358;50.936;0.246;2023-04-30T06:57:41;101644.90;;;11.56;65.17
64632;BME280;58358;50.936;0.246;2023-04-30T07:00:09;101643.81;;;11.07;68.71
64632;BME280;58358;50.936;0.246;2023-04-30T07:02:32;101642.19;;;11.67;66.10
64632;BME280;58358;50.936;0.246;2023-04-30T07:04:58;101648.92;;;10.76;69.65
64632;BME280;58358;50.936;0.246;2023-04-30T07:07:23;101650.01;;;10.44;68.44
64632;BME280;58358;50.936;0.246;2023-04-30T07:09:49;101654.40;;;9.74;74.75
64632;BME280;58358;50.936;0.246;2023-04-30T07:12:14;101657.46;;;10.51;70.48
64632;BME280;58358;50.936;0.246;2023-04-30T07:14:40;101655.22;;;11.25;68.48
64632;BME280;58358;50.936;0.246;2023-04-30T07:17:05;101655.20;;;11.38;67.40
64632;BME280;58358;50.936;0.246;2023-04-30T07:19:31;101656.15;;;11.17;69.69
64632;BME280;58358;50.936;0.246;2023-04-30T07:21:56;101652.95;;;9.92;69.41
64632;BME280;58358;50.936;0.246;2023-04-30T07:24:22;101648.42;;;10.29;69.81
64632;BME280;58358;50.936;0.246;2023-04-30T07:26:47;101641.49;;;11.67;65.43
64632;BME280;58358;50.936;0.246;2023-04-30T07:29:13;101645.71;;;12.34;63.28
64632;BME280;58358;50.936;0.246;2023-04-30T07:31:39;101641.00;;;11.43;64.46
64632;BME280;58358;50.936;0.246;2023-04-30T07:34:04;101641.04;;;11.80;64.15
64632;BME280;58358;50.936;0.246;2023-04-30T07:36:29;101644.10;;;10.95;67.22
64632;BME280;58358;50.936;0.246;2023-04-30T07:38:54;101644.61;;;11.99;63.57
64632;BME280;58358;50.936;0.246;2023-04-30T07:41:19;101638.63;;;10.90;66.94
64632;BME280;58358;50.936;0.246;2023-04-30T07:43:45;101638.72;;;11.04;65.86
64632;BME280;58358;50.936;0.246;2023-04-30T07:46:10;101643.42;;;12.15;62.60
64632;BME280;58358;50.936;0.246;2023-04-30T07:48:36;101640.76;;;12.21;61.71
64632;BME280;58358;50.936;0.246;2023-04-30T07:51:01;101640.02;;;11.17;67.31
64632;BME280;58358;50.936;0.246;2023-04-30T07:53:27;101644.33;;;11.90;65.11
64632;BME280;58358;50.936;0.246;2023-04-30T07:55:52;101649.35;;;12.44;63.39
64632;BME280;58358;50.936;0.246;2023-04-30T07:58:18;101649.65;;;11.64;63.21
64632;BME280;58358;50.936;0.246;2023-04-30T08:00:43;101651.04;;;12.23;62.13
64632;BME280;58358;50.936;0.246;2023-04-30T08:03:09;101648.62;;;10.55;65.93
64632;BME280;58358;50.936;0.246;2023-04-30T08:05:34;101651.28;;;12.37;62.75
64632;BME280;58358;50.936;0.246;2023-04-30T08:07:59;101646.84;;;11.15;66.65
64632;BME280;58358;50.936;0.246;2023-04-30T08:10:25;101644.99;;;11.40;67.82
64632;BME280;58358;50.936;0.246;2023-04-30T08:12:51;101648.77;;;11.06;64.18
64632;BME280;58358;50.936;0.246;2023-04-30T08:15:15;101652.48;;;12.36;62.93
64632;BME280;58358;50.936;0.246;2023-04-30T08:17:41;101652.93;;;10.64;67.33
64632;BME280;58358;50.936;0.246;2023-04-30T08:20:07;101656.06;;;12.73;64.27
64632;BME280;58358;50.936;0.246;2023-04-30T08:22:32;101652.32;;;11.97;65.67
64632;BME280;58358;50.936;0.246;2023-04-30T08:24:57;101649.18;;;12.20;63.65
64632;BME280;58358;50.936;0.246;2023-04-30T08:27:22;101647.64;;;12.19;64.72
64632;BME280;58358;50.936;0.246;2023-04-30T08:29:48;101646.86;;;13.07;61.66
64632;BME280;58358;50.936;0.246;2023-04-30T08:32:14;101649.90;;;12.91;62.27
64632;BME280;58358;50.936;0.246;2023-04-30T08:34:39;101649.78;;;12.97;61.88
64632;BME280;58358;50.936;0.246;2023-04-30T08:37:05;101649.99;;;12.50;63.46
64632;BME280;58358;50.936;0.246;2023-04-30T08:39:31;101648.88;;;13.29;60.80
64632;BME280;58358;50.936;0.246;2023-04-30T08:41:56;101647.81;;;14.23;59.25
64632;BME280;58358;50.936;0.246;2023-04-30T08:44:22;101652.63;;;12.56;62.83
64632;BME280;58358;50.936;0.246;2023-04-30T08:46:48;101650.88;;;13.20;59.90
64632;BME280;58358;50.936;0.246;2023-04-30T08:49:13;101649.17;;;12.96;61.50
64632;BME280;58358;50.936;0.246;2023-04-30T08:51:39;101647.21;;;12.97;62.31
64632;BME280;58358;50.936;0.246;2023-04-30T08:54:04;101646.20;;;13.23;61.56
64632;BME280;58358;50.936;0.246;2023-04-30T08:56:29;101649.99;;;12.48;64.81
64632;BME280;58358;50.936;0.246;2023-04-30T08:58:55;101648.00;;;13.42;60.39
64632;BME280;58358;50.936;0.246;2023-04-30T09:01:20;101649.78;;;14.09;57.62
64632;BME280;58358;50.936;0.246;2023-04-30T09:03:45;101646.41;;;14.30;57.15
64632;BME280;58358;50.936;0.246;2023-04-30T09:06:15;101646.83;;;14.10;55.92
64632;BME280;58358;50.936;0.246;2023-04-30T09:08:40;101646.10;;;14.65;55.11
64632;BME280;58358;50.936;0.246;2023-04-30T09:11:01;101641.94;;;15.32;53.04
64632;BME280;58358;50.936;0.246;2023-04-30T09:15:52;101639.92;;;13.92;56.66
64632;BME280;58358;50.936;0.246;2023-04-30T09:18:18;101641.47;;;13.99;56.61
64632;BME280;58358;50.936;0.246;2023-04-30T09:20:53;101638.92;;;13.54;57.33
64632;BME280;58358;50.936;0.246;2023-04-30T09:23:09;101640.45;;;15.17;54.18
64632;BME280;58358;50.936;0.246;2023-04-30T09:25:39;101642.67;;;13.22;57.78
64632;BME280;58358;50.936;0.246;2023-04-30T09:28:07;101638.22;;;14.08;56.60
64632;BME280;58358;50.936;0.246;2023-04-30T09:30:30;101638.75;;;14.04;57.97
64632;BME280;58358;50.936;0.246;2023-04-30T09:32:54;101641.97;;;13.90;57.56
64632;BME280;58358;50.936;0.246;2023-04-30T09:37:40;101630.81;;;15.43;51.79
64632;BME280;58358;50.936;0.246;2023-04-30T09:40:07;101633.44;;;14.75;53.84
64632;BME280;58358;50.936;0.246;2023-04-30T09:42:31;101633.50;;;14.66;52.70
64632;BME280;58358;50.936;0.246;2023-04-30T09:44:57;101629.22;;;14.00;55.21
64632;BME280;58358;50.936;0.246;2023-04-30T09:47:22;101630.51;;;15.75;52.25
64632;BME280;58358;50.936;0.246;2023-04-30T09:49:49;101629.44;;;15.34;51.77
64632;BME280;58358;50.936;0.246;2023-04-30T09:52:14;101627.73;;;15.43;51.52
64632;BME280;58358;50.936;0.246;2023-04-30T09:54:39;101627.90;;;14.73;54.58
64632;BME280;58358;50.936;0.246;2023-04-30T09:57:05;101626.38;;;15.01;54.70
64632;BME280;58358;50.936;0.246;2023-04-30T09:59:31;101626.02;;;14.72;53.83
64632;BME280;58358;50.936;0.246;2023-04-30T10:01:57;101627.17;;;15.09;54.08
64632;BME280;58358;50.936;0.246;2023-04-30T10:04:20;101626.78;;;15.36;52.56
64632;BME280;58358;50.936;0.246;2023-04-30T10:06:46;101628.33;;;14.08;54.83
64632;BME280;58358;50.936;0.246;2023-04-30T10:09:13;101630.16;;;14.77;53.21
64632;BME280;58358;50.936;0.246;2023-04-30T10:11:37;101630.16;;;14.49;53.04
64632;BME280;58358;50.936;0.246;2023-04-30T10:14:07;101628.54;;;13.92;52.63
64632;BME280;58358;50.936;0.246;2023-04-30T10:16:33;101621.28;;;15.06;50.96
64632;BME280;58358;50.936;0.246;2023-04-30T10:18:56;101625.92;;;13.31;56.56
64632;BME280;58358;50.936;0.246;2023-04-30T10:21:22;101629.45;;;13.89;55.74
64632;BME280;58358;50.936;0.246;2023-04-30T10:23:45;101627.45;;;14.16;53.49
64632;BME280;58358;50.936;0.246;2023-04-30T10:26:10;101626.21;;;14.53;51.93
64632;BME280;58358;50.936;0.246;2023-04-30T10:28:36;101622.29;;;14.53;52.49
64632;BME280;58358;50.936;0.246;2023-04-30T10:31:01;101618.47;;;15.55;49.71
64632;BME280;58358;50.936;0.246;2023-04-30T10:33:33;101621.55;;;15.27;51.04
64632;BME280;58358;50.936;0.246;2023-04-30T10:35:57;101615.66;;;15.69;48.01
64632;BME280;58358;50.936;0.246;2023-04-30T10:38:21;101614.93;;;15.49;49.72
64632;BME280;58358;50.936;0.246;2023-04-30T10:40:45;101616.81;;;14.70;50.02
64632;BME280;58358;50.936;0.246;2023-04-30T10:43:10;101612.34;;;15.21;49.62
64632;BME280;58358;50.936;0.246;2023-04-30T10:45:34;101610.05;;;14.88;50.32
64632;BME280;58358;50.936;0.246;2023-04-30T10:48:00;101607.51;;;15.09;49.61
64632;BME280;58358;50.936;0.246;2023-04-30T10:50:24;101601.85;;;14.88;50.71
64632;BME280;58358;50.936;0.246;2023-04-30T10:55:16;101591.59;;;15.41;49.02
64632;BME280;58358;50.936;0.246;2023-04-30T10:57:41;101592.99;;;14.87;50.39
64632;BME280;58358;50.936;0.246;2023-04-30T11:00:17;101589.44;;;15.42;48.54
64632;BME280;58358;50.936;0.246;2023-04-30T11:02:37;101592.63;;;16.53;46.39
64632;BME280;58358;50.936;0.246;2023-04-30T11:05:08;101590.59;;;16.10;46.41
64632;BME280;58358;50.936;0.246;2023-04-30T11:07:25;101587.02;;;17.05;43.78
64632;BME280;58358;50.936;0.246;2023-04-30T11:09:47;101582.72;;;15.42;45.38
64632;BME280;58358;50.936;0.246;2023-04-30T11:12:15;101580.81;;;15.71;45.77
64632;BME280;58358;50.936;0.246;2023-04-30T11:14:40;101580.75;;;15.88;45.57
64632;BME280;58358;50.936;0.246;2023-04-30T11:17:03;101575.82;;;15.29;46.51
64632;BME280;58358;50.936;0.246;2023-04-30T11:19:31;101574.62;;;14.54;49.07
64632;BME280;58358;50.936;0.246;2023-04-30T11:24:20;101570.58;;;15.95;45.11
64632;BME280;58358;50.936;0.246;2023-04-30T11:27:03;101567.44;;;16.19;44.51
64632;BME280;58358;50.936;0.246;2023-04-30T11:29:11;101559.24;;;15.14;46.05
64632;BME280;58358;50.936;0.246;2023-04-30T11:31:37;101561.71;;;16.09;44.32
64632;BME280;58358;50.936;0.246;2023-04-30T11:34:02;101558.38;;;16.35;43.87
64632;BME280;58358;50.936;0.246;2023-04-30T11:36:29;101553.66;;;15.06;45.44
64632;BME280;58358;50.936;0.246;2023-04-30T11:38:52;101553.10;;;16.14;43.42
64632;BME280;58358;50.936;0.246;2023-04-30T11:41:20;101544.14;;;16.65;42.00
64632;BME280;58358;50.936;0.246;2023-04-30T11:43:43;101543.29;;;16.69;41.60
64632;BME280;58358;50.936;0.246;2023-04-30T11:46:10;101544.06;;;16.84;41.64
64632;BME280;58358;50.936;0.246;2023-04-30T11:48:35;101546.97;;;16.16;42.83
64632;BME280;58358;50.936;0.246;2023-04-30T11:51:02;101544.96;;;15.69;43.37
64632;BME280;58358;50.936;0.246;2023-04-30T11:53:27;101545.92;;;16.63;43.67
64632;BME280;58358;50.936;0.246;2023-04-30T11:55:52;101549.27;;;16.49;44.11
64632;BME280;58358;50.936;0.246;2023-04-30T11:58:16;101547.07;;;16.57;43.81
64632;BME280;58358;50.936;0.246;2023-04-30T12:00:41;101542.43;;;16.96;42.95
64632;BME280;58358;50.936;0.246;2023-04-30T12:03:06;101543.79;;;16.54;42.54
64632;BME280;58358;50.936;0.246;2023-04-30T12:05:32;101539.47;;;16.90;41.50
64632;BME280;58358;50.936;0.246;2023-04-30T12:08:02;101535.76;;;17.63;39.29
64632;BME280;58358;50.936;0.246;2023-04-30T12:10:23;101537.93;;;17.34;40.34
64632;BME280;58358;50.936;0.246;2023-04-30T12:12:49;101534.44;;;16.61;40.67
64632;BME280;58358;50.936;0.246;2023-04-30T12:15:15;101532.17;;;16.73;39.25
64632;BME280;58358;50.936;0.246;2023-04-30T12:17:38;101532.04;;;17.16;38.97
64632;BME280;58358;50.936;0.246;2023-04-30T12:20:04;101531.65;;;16.36;40.74
64632;BME280;58358;50.936;0.246;2023-04-30T12:22:29;101531.62;;;16.72;39.83
64632;BME280;58358;50.936;0.246;2023-04-30T12:24:54;101528.86;;;16.03;38.94
64632;BME280;58358;50.936;0.246;2023-04-30T12:27:20;101523.19;;;16.46;38.97
64632;BME280;58358;50.936;0.246;2023-04-30T12:29:45;101523.56;;;17.68;37.47
64632;BME280;58358;50.936;0.246;2023-04-30T12:32:10;101524.49;;;17.65;37.69
64632;BME280;58358;50.936;0.246;2023-04-30T12:34:37;101524.61;;;18.80;37.32
64632;BME280;58358;50.936;0.246;2023-04-30T12:37:01;101521.33;;;16.60;39.67
64632;BME280;58358;50.936;0.246;2023-04-30T12:39:32;101521.29;;;18.63;37.86
64632;BME280;58358;50.936;0.246;2023-04-30T12:41:52;101519.87;;;18.00;37.39
64632;BME280;58358;50.936;0.246;2023-04-30T12:44:19;101519.65;;;17.68;36.34
64632;BME280;58358;50.936;0.246;2023-04-30T12:46:44;101515.87;;;19.01;35.14
64632;BME280;58358;50.936;0.246;2023-04-30T12:49:10;101517.37;;;17.48;37.98
64632;BME280;58358;50.936;0.246;2023-04-30T12:51:35;101514.68;;;18.91;35.69
64632;BME280;58358;50.936;0.246;2023-04-30T12:54:00;101519.61;;;18.96;36.68